createdAt,value
2023-02-13T00:00:09.371Z,8.20
2023-02-13T00:04:11.456Z,8.20
2023-02-13T00:08:13.170Z,8.20
2023-02-13T00:12:14.839Z,8.20
2023-02-13T00:16:16.606Z,8.20
2023-02-13T00:20:18.485Z,8.20
2023-02-13T00:24:20.310Z,8.30
2023-02-13T00:28:22.068Z,8.20
2023-02-13T00:32:23.813Z,8.30
2023-02-13T00:36:25.523Z,8.40
2023-02-13T00:40:27.211Z,8.30
2023-02-13T00:44:28.891Z,8.30
2023-02-13T00:48:32.802Z,8.30
2023-02-13T00:52:34.547Z,8.30
2023-02-13T00:56:36.223Z,8.20
2023-02-13T01:00:38.711Z,8.20
2023-02-13T01:04:40.427Z,8.30
2023-02-13T01:08:42.196Z,8.30
2023-02-13T01:12:43.911Z,8.20
2023-02-13T01:16:45.633Z,8.20
2023-02-13T01:20:57.757Z,8.20
2023-02-13T01:24:59.734Z,8.10
2023-02-13T01:29:01.751Z,8.20
2023-02-13T01:33:03.719Z,8.10
2023-02-13T01:37:05.466Z,8.20
2023-02-13T01:41:08.288Z,8.00
2023-02-13T01:45:30.422Z,8.10
2023-02-13T01:49:32.648Z,8.00
2023-02-13T01:53:42.912Z,8.00
2023-02-13T01:57:51.017Z,7.90
2023-02-13T02:01:54.039Z,8.00
2023-02-13T02:05:58.342Z,7.90
2023-02-13T02:10:03.936Z,7.80
2023-02-13T02:14:06.008Z,7.90
2023-02-13T02:18:22.047Z,7.90
2023-02-13T02:22:35.663Z,7.80
2023-02-13T02:26:55.367Z,7.80
2023-02-13T02:31:29.601Z,7.80
2023-02-13T02:35:52.423Z,7.80
2023-02-13T02:40:03.429Z,7.80
2023-02-13T02:44:42.446Z,7.80
2023-02-13T02:49:07.823Z,7.70
2023-02-13T02:53:27.916Z,7.60
2023-02-13T02:57:51.296Z,7.80
2023-02-13T03:02:13.481Z,7.60
2023-02-13T03:06:21.367Z,7.60
2023-02-13T03:10:49.932Z,7.70
2023-02-13T03:14:51.693Z,7.70
2023-02-13T03:19:16.462Z,7.60
2023-02-13T03:23:33.900Z,7.50
2023-02-13T03:28:26.512Z,7.60
2023-02-13T03:32:34.030Z,7.60
2023-02-13T03:37:18.297Z,7.60
2023-02-13T03:41:30.153Z,7.60
2023-02-13T03:45:57.251Z,7.60
2023-02-13T03:50:08.950Z,7.50
2023-02-13T03:54:43.834Z,7.50
2023-02-13T03:59:09.169Z,7.50
2023-02-13T04:03:28.794Z,7.50
2023-02-13T04:07:30.742Z,7.60
2023-02-13T04:11:42.363Z,7.50
2023-02-13T04:15:51.091Z,7.40
2023-02-13T04:19:53.274Z,7.50
2023-02-13T04:23:55.003Z,7.50
2023-02-13T04:27:56.677Z,7.50
2023-02-13T04:31:58.395Z,7.40
2023-02-13T04:36:00.117Z,7.50
2023-02-13T04:40:01.819Z,7.50
2023-02-13T04:44:03.694Z,7.50
2023-02-13T04:48:05.389Z,7.40
2023-02-13T04:52:07.080Z,7.40
2023-02-13T04:56:08.851Z,7.30
2023-02-13T05:00:11.801Z,7.30
2023-02-13T05:04:16.203Z,7.20
2023-02-13T05:08:18.045Z,7.10
2023-02-13T05:12:19.812Z,7.10
2023-02-13T05:16:21.595Z,7.00
2023-02-13T05:20:23.704Z,6.90
2023-02-13T05:24:25.635Z,6.90
2023-02-13T05:28:46.493Z,6.90
2023-02-13T05:32:50.703Z,6.80
2023-02-13T05:36:52.660Z,6.60
2023-02-13T05:40:54.412Z,6.60
2023-02-13T05:44:56.153Z,6.50
2023-02-13T05:48:57.848Z,6.30
2023-02-13T05:52:59.510Z,6.20
2023-02-13T05:57:01.209Z,6.20
2023-02-13T06:01:02.960Z,6.20
2023-02-13T06:05:04.961Z,6.20
2023-02-13T06:09:06.677Z,6.00
2023-02-13T06:13:08.323Z,6.00
2023-02-13T06:17:09.973Z,6.10
2023-02-13T06:21:11.668Z,6.00
2023-02-13T06:25:13.482Z,6.00
2023-02-13T06:29:15.182Z,6.00
2023-02-13T06:33:16.867Z,6.00
2023-02-13T06:37:18.502Z,6.00
2023-02-13T06:41:20.311Z,5.90
2023-02-13T06:45:22.103Z,6.00
2023-02-13T06:49:23.892Z,5.90
2023-02-13T06:53:25.729Z,5.90
2023-02-13T06:57:27.440Z,6.00
2023-02-13T07:01:29.158Z,6.00
2023-02-13T07:05:31.606Z,6.10
2023-02-13T07:09:33.309Z,6.10
2023-02-13T07:13:35.012Z,6.10
2023-02-13T07:17:36.734Z,6.10
2023-02-13T07:21:38.448Z,6.00
2023-02-13T07:25:40.134Z,5.90
2023-02-13T07:29:41.814Z,5.90
2023-02-13T07:33:43.616Z,6.10
2023-02-13T07:37:45.375Z,6.10
2023-02-13T07:41:47.141Z,6.10
2023-02-13T07:45:48.789Z,6.20
2023-02-13T07:49:50.544Z,6.20
2023-02-13T07:53:52.974Z,6.20
2023-02-13T07:57:55.075Z,6.20
2023-02-13T08:01:56.878Z,6.20
2023-02-13T08:05:58.923Z,6.20
2023-02-13T08:10:19.416Z,6.30
2023-02-13T08:14:26.050Z,6.40
2023-02-13T08:18:27.747Z,6.40
2023-02-13T08:22:29.460Z,6.50
2023-02-13T08:26:32.320Z,6.40
2023-02-13T08:30:34.012Z,6.40
2023-02-13T08:34:35.749Z,6.50
2023-02-13T08:38:37.497Z,6.60
2023-02-13T08:42:39.336Z,6.70
2023-02-13T08:46:41.007Z,6.80
2023-02-13T08:50:42.698Z,7.00
2023-02-13T08:54:44.430Z,7.00
2023-02-13T08:58:49.574Z,7.00
2023-02-13T09:02:51.389Z,7.10
2023-02-13T09:06:53.207Z,7.20
2023-02-13T09:11:03.839Z,7.30
2023-02-13T09:15:06.112Z,7.40
2023-02-13T09:19:07.830Z,7.60
2023-02-13T09:23:09.601Z,7.70
2023-02-13T09:27:11.321Z,7.90
2023-02-13T09:31:24.153Z,7.80
2023-02-13T09:35:26.012Z,7.90
2023-02-13T09:39:27.749Z,8.00
2023-02-13T09:43:33.862Z,7.90
2023-02-13T09:47:39.183Z,8.20
2023-02-13T09:51:44.054Z,8.80
2023-02-13T09:55:58.717Z,9.80
2023-02-13T10:00:17.381Z,10.70
2023-02-13T10:04:40.208Z,12.20
2023-02-13T10:09:16.585Z,13.80
2023-02-13T10:13:55.911Z,14.30
2023-02-13T10:18:06.283Z,15.40
2023-02-13T10:22:16.714Z,16.60
2023-02-13T10:26:27.117Z,17.00
2023-02-13T10:30:35.179Z,17.00
2023-02-13T10:34:46.636Z,15.60
2023-02-13T10:39:00.919Z,14.50
2023-02-13T10:43:09.998Z,13.50
2023-02-13T10:47:23.518Z,12.70
2023-02-13T10:51:51.390Z,11.80
2023-02-13T10:56:19.220Z,11.20
2023-02-13T11:00:46.407Z,11.40
2023-02-13T11:04:49.313Z,11.40
2023-02-13T11:08:51.180Z,11.30
2023-02-13T11:12:53.739Z,11.20
2023-02-13T11:16:58.468Z,11.10
2023-02-13T11:21:14.310Z,11.20
2023-02-13T11:25:23.118Z,11.40
2023-02-13T11:29:31.815Z,11.40
2023-02-13T11:33:33.509Z,11.00
2023-02-13T11:37:35.238Z,11.10
2023-02-13T11:41:41.753Z,11.10
2023-02-13T11:45:43.562Z,11.10
2023-02-13T11:49:47.495Z,11.10
2023-02-13T11:53:49.267Z,11.00
2023-02-13T11:57:59.923Z,11.30
2023-02-13T12:02:09.637Z,11.50
2023-02-13T12:06:15.788Z,11.60
2023-02-13T12:10:31.400Z,11.50
2023-02-13T12:14:39.565Z,11.60
2023-02-13T12:18:46.354Z,11.70
2023-02-13T12:22:58.915Z,11.60
2023-02-13T12:27:12.368Z,11.90
2023-02-13T12:31:33.503Z,12.00
2023-02-13T12:35:46.383Z,12.00
2023-02-13T12:39:59.057Z,12.00
2023-02-13T12:44:19.486Z,11.80
2023-02-13T12:48:42.994Z,11.90
2023-02-13T12:53:10.083Z,12.20
2023-02-13T12:57:39.182Z,12.50
2023-02-13T13:01:49.688Z,12.70
2023-02-13T13:06:12.238Z,12.70
2023-02-13T13:10:29.213Z,12.90
2023-02-13T13:15:01.235Z,13.20
2023-02-13T13:19:31.870Z,13.40
2023-02-13T13:24:00.950Z,13.90
2023-02-13T13:28:11.877Z,14.90
2023-02-13T13:32:18.889Z,15.50
2023-02-13T13:36:45.335Z,16.50
2023-02-13T13:41:10.816Z,16.80
2023-02-13T13:45:31.031Z,17.90
2023-02-13T13:49:53.947Z,19.10
2023-02-13T13:54:04.834Z,19.70
2023-02-13T13:58:23.503Z,20.60
2023-02-13T14:02:25.136Z,21.00
2023-02-13T14:06:49.602Z,20.90
2023-02-13T14:11:02.495Z,20.80
2023-02-13T14:15:04.574Z,20.80
2023-02-13T14:19:23.132Z,19.40
2023-02-13T14:23:30.802Z,19.60
2023-02-13T14:27:38.958Z,20.00
2023-02-13T14:31:43.710Z,20.00
2023-02-13T14:35:45.525Z,20.10
2023-02-13T14:40:17.459Z,19.60
2023-02-13T14:44:55.821Z,19.00
2023-02-13T14:49:17.006Z,18.10
2023-02-13T14:53:26.296Z,16.90
2023-02-13T14:57:46.832Z,16.20
2023-02-13T15:01:53.535Z,15.70
2023-02-13T15:06:01.007Z,15.20
2023-02-13T15:10:24.772Z,14.70
2023-02-13T15:14:36.587Z,14.50
2023-02-13T15:18:52.446Z,14.20
2023-02-13T15:22:54.841Z,14.10
2023-02-13T15:27:02.672Z,14.00
2023-02-13T15:31:07.275Z,13.90
2023-02-13T15:35:32.724Z,13.70
2023-02-13T15:39:34.732Z,13.30
2023-02-13T15:43:43.624Z,13.10
2023-02-13T15:47:46.906Z,12.90
2023-02-13T15:51:50.209Z,12.70
2023-02-13T15:56:04.363Z,12.60
2023-02-13T16:00:07.631Z,12.30
2023-02-13T16:04:10.742Z,12.20
2023-02-13T16:08:31.999Z,12.10
2023-02-13T16:12:33.731Z,11.90
2023-02-13T16:16:50.480Z,11.70
2023-02-13T16:20:56.446Z,11.60
2023-02-13T16:25:30.063Z,11.30
2023-02-13T16:29:31.898Z,11.10
2023-02-13T16:33:36.025Z,10.80
2023-02-13T16:37:50.697Z,10.50
2023-02-13T16:41:53.124Z,10.20
2023-02-13T16:45:55.021Z,9.90
2023-02-13T16:49:57.335Z,9.60
2023-02-13T16:54:23.962Z,9.30
2023-02-13T16:58:27.326Z,9.10
2023-02-13T17:02:30.162Z,8.80
2023-02-13T17:06:31.871Z,8.50
2023-02-13T17:10:39.080Z,8.30
2023-02-13T17:14:41.544Z,8.10
2023-02-13T17:18:43.229Z,7.90
2023-02-13T17:22:50.462Z,7.70
2023-02-13T17:26:52.068Z,7.50
2023-02-13T17:30:57.050Z,7.30
2023-02-13T17:34:59.020Z,7.00
2023-02-13T17:39:00.709Z,6.90
2023-02-13T17:43:03.184Z,6.70
2023-02-13T17:47:04.889Z,6.60
2023-02-13T17:51:06.606Z,6.40
2023-02-13T17:55:20.976Z,6.20
2023-02-13T17:59:25.422Z,6.10
2023-02-13T18:03:27.321Z,6.00
2023-02-13T18:07:29.065Z,5.80
2023-02-13T18:11:31.111Z,5.70
2023-02-13T18:15:40.961Z,5.50
2023-02-13T18:19:42.758Z,5.40
2023-02-13T18:23:44.519Z,5.30
2023-02-13T18:27:46.797Z,5.20
2023-02-13T18:31:48.618Z,5.00
2023-02-13T18:35:50.429Z,4.90
2023-02-13T18:39:52.107Z,4.80
2023-02-13T18:43:57.427Z,4.70
2023-02-13T18:47:59.173Z,4.60
2023-02-13T18:52:02.191Z,4.50
2023-02-13T18:56:06.150Z,4.40
2023-02-13T19:00:08.337Z,4.30
2023-02-13T19:04:11.097Z,4.20
2023-02-13T19:08:12.789Z,4.10
2023-02-13T19:12:14.528Z,4.00
2023-02-13T19:16:18.469Z,4.00
2023-02-13T19:20:20.539Z,3.90
2023-02-13T19:24:22.273Z,3.80
2023-02-13T19:28:24.012Z,3.70
2023-02-13T19:32:25.727Z,3.70
2023-02-13T19:36:29.005Z,3.60
2023-02-13T19:40:30.723Z,3.60
2023-02-13T19:44:32.358Z,3.50
2023-02-13T19:48:34.386Z,3.50
2023-02-13T19:52:36.057Z,3.50
2023-02-13T19:56:39.578Z,3.50
2023-02-13T20:00:41.583Z,3.50
2023-02-13T20:04:43.872Z,3.60
2023-02-13T20:08:46.601Z,3.50
2023-02-13T20:12:53.598Z,3.60
2023-02-13T20:16:55.363Z,3.60
2023-02-13T20:20:57.599Z,3.60
2023-02-13T20:24:59.494Z,3.60
2023-02-13T20:29:02.007Z,3.60
2023-02-13T20:33:03.764Z,3.70
2023-02-13T20:37:05.659Z,3.70
2023-02-13T20:41:19.321Z,3.90
2023-02-13T20:45:21.155Z,4.20
2023-02-13T20:49:23.347Z,4.30
2023-02-13T20:53:25.371Z,4.40
2023-02-13T20:57:27.798Z,4.60
2023-02-13T21:01:37.138Z,4.70
2023-02-13T21:05:40.159Z,5.00
2023-02-13T21:09:42.012Z,5.20
2023-02-13T21:13:44.051Z,5.70
2023-02-13T21:17:45.719Z,5.90
2023-02-13T21:21:47.835Z,6.10
2023-02-13T21:25:49.888Z,6.20
2023-02-13T21:29:51.663Z,6.30
2023-02-13T21:33:53.944Z,6.40
2023-02-13T21:37:55.649Z,6.30
2023-02-13T21:41:57.588Z,6.40
2023-02-13T21:46:10.521Z,6.50
2023-02-13T21:50:12.594Z,6.40
2023-02-13T21:54:14.506Z,6.20
2023-02-13T21:58:16.175Z,6.20
2023-02-13T22:02:18.152Z,6.10
2023-02-13T22:06:21.107Z,6.20
2023-02-13T22:10:22.793Z,6.10
2023-02-13T22:14:24.612Z,6.30
2023-02-13T22:18:26.506Z,6.20
2023-02-13T22:22:28.157Z,6.20
2023-02-13T22:26:36.025Z,6.20
2023-02-13T22:30:37.776Z,6.10
2023-02-13T22:34:39.564Z,6.00
2023-02-13T22:38:42.184Z,6.00
2023-02-13T22:42:43.878Z,5.90
2023-02-13T22:46:45.560Z,5.80
2023-02-13T22:50:47.262Z,5.80
2023-02-13T22:54:48.978Z,5.60
2023-02-13T22:58:50.989Z,5.60
2023-02-13T23:02:52.979Z,5.60
2023-02-13T23:06:54.651Z,5.50
2023-02-13T23:11:15.301Z,5.40
2023-02-13T23:15:17.055Z,5.30
2023-02-13T23:19:19.482Z,5.20
2023-02-13T23:23:22.204Z,5.10
2023-02-13T23:27:23.865Z,5.00
2023-02-13T23:31:25.593Z,4.90
2023-02-13T23:35:27.910Z,4.90
2023-02-13T23:39:29.618Z,4.70
2023-02-13T23:43:31.293Z,4.40
2023-02-13T23:47:32.976Z,4.00
2023-02-13T23:51:34.828Z,3.80
2023-02-13T23:55:36.511Z,3.60
2023-02-13T23:59:38.586Z,3.40
